Time;durP1;ratioP1;P1;durP2;ratioP2;P2;SDS_P1;SDS_P2;PMS_P1;PMS_P2;Temp;Humidity;BMP_temperature;BMP_pressure;BME280_temperature;BME280_humidity;BME280_pressure;Samples;Min_cycle;Max_cycle;Signal;HPM_P1;HPM_P2
2022/07/21 00:01:40;;;;;;;4.47;2.22;;;;;;;25.59;42.42;96331.75;10491470;28;20194;-71
2022/07/21 00:06:40;;;;;;;2.97;1.90;;;;;;;25.68;42.36;96328.56;10490374;28;20258;-71
2022/07/21 00:11:41;;;;;;;12.77;2.28;;;;;;;25.64;42.09;96321.03;10490606;28;20242;-71
2022/07/21 00:16:42;;;;;;;6.55;2.03;;;;;;;25.74;42.03;96327.50;10490854;28;20245;-71
2022/07/21 00:21:42;;;;;;;3.25;1.80;;;;;;;25.70;41.99;96303.09;10490488;28;20206;-71
2022/07/21 00:26:43;;;;;;;6.75;2.25;;;;;;;25.69;41.77;96298.78;10490043;28;20203;-71
2022/07/21 00:31:43;;;;;;;5.78;1.70;;;;;;;25.95;40.97;96277.38;10472542;28;20219;-71
2022/07/21 00:36:44;;;;;;;6.50;2.05;;;;;;;25.95;40.99;96280.06;10489669;28;20651;-71
2022/07/21 00:41:44;;;;;;;7.78;2.30;;;;;;;25.92;41.07;96267.97;10490379;28;20559;-71
2022/07/21 00:46:44;;;;;;;2.53;1.80;;;;;;;26.03;40.59;96268.84;10490402;28;20542;-71
2022/07/21 00:51:45;;;;;;;2.60;1.50;;;;;;;25.97;40.51;96277.91;10490049;28;20651;-71
2022/07/21 00:56:46;;;;;;;6.00;1.75;;;;;;;25.87;40.52;96273.34;10490079;28;20195;-71
2022/07/21 01:01:47;;;;;;;10.02;2.00;;;;;;;25.82;40.75;96265.28;10488517;28;20663;-71
2022/07/21 01:06:47;;;;;;;3.83;1.92;;;;;;;25.74;40.68;96258.56;10474225;28;20239;-71
2022/07/21 01:11:48;;;;;;;4.68;2.13;;;;;;;26.01;39.57;96237.97;10497658;28;20219;-71
2022/07/21 01:16:48;;;;;;;9.20;2.50;;;;;;;25.99;39.42;96251.66;10497219;28;20195;-71
2022/07/21 01:21:50;;;;;;;7.68;2.05;;;;;;;26.37;38.19;96289.00;10497117;28;20184;-71
2022/07/21 01:26:52;;;;;;;7.47;2.00;;;;;;;25.99;39.71;96337.56;10496729;28;20203;-71
2022/07/21 01:31:52;;;;;;;5.22;2.10;;;;;;;25.50;41.33;96381.59;10496991;28;20250;-71
2022/07/21 01:36:53;;;;;;;6.07;2.10;;;;;;;25.20;42.46;96401.75;10478191;28;20286;-71
2022/07/21 01:41:53;;;;;;;5.35;1.70;;;;;;;24.98;42.85;96396.53;10462656;28;20218;-71
2022/07/21 01:46:54;;;;;;;4.82;2.00;;;;;;;24.67;43.89;96419.56;10478083;28;20187;-71
2022/07/21 01:51:54;;;;;;;3.78;2.08;;;;;;;24.41;44.74;96448.75;10496686;28;20225;-71
2022/07/21 01:56:54;;;;;;;5.57;1.80;;;;;;;24.21;45.07;96471.56;10496131;28;20294;-71
2022/07/21 02:01:55;;;;;;;7.15;2.30;;;;;;;24.32;45.07;96498.44;10495893;28;20183;-70
2022/07/21 02:06:55;;;;;;;3.85;2.05;;;;;;;24.11;45.71;96503.53;10477457;28;20239;-71
2022/07/21 02:11:56;;;;;;;11.20;2.20;;;;;;;23.68;47.88;96554.00;10477393;28;20690;-71
2022/07/21 02:16:56;;;;;;;4.10;1.90;;;;;;;23.42;48.14;96568.84;10495110;28;20643;-72
2022/07/21 02:21:56;;;;;;;6.25;2.05;;;;;;;23.58;47.63;96563.75;10494589;28;20282;-71
2022/07/21 02:26:57;;;;;;;8.68;2.40;;;;;;;23.41;48.33;96582.47;10494786;28;20191;-71
2022/07/21 02:31:57;;;;;;;4.90;1.92;;;;;;;23.07;49.97;96638.50;10494427;28;20227;-71
2022/07/21 02:36:58;;;;;;;4.40;2.20;;;;;;;22.34;52.59;96681.56;10493437;28;20299;-71
2022/07/21 02:41:59;;;;;;;7.25;2.75;;;;;;;21.62;55.34;96730.47;10493402;28;20179;-71
2022/07/21 02:46:59;;;;;;;9.38;2.83;;;;;;;21.06;57.60;96774.19;10492383;28;20195;-71
2022/07/21 02:51:59;;;;;;;3.47;2.97;;;;;;;20.89;58.78;96800.59;10492318;28;20653;-71
2022/07/21 02:57:00;;;;;;;4.68;2.85;;;;;;;20.70;60.62;96829.03;10492687;28;20556;-71
2022/07/21 03:02:00;;;;;;;8.10;3.17;;;;;;;20.43;61.27;96842.53;10492355;28;20540;-71
2022/07/21 03:07:02;;;;;;;7.50;4.13;;;;;;;20.55;63.14;96854.13;10447423;28;20676;-71
2022/07/21 03:12:03;;;;;;;12.75;4.95;;;;;;;20.52;64.23;96851.06;10444327;28;20577;-71
2022/07/21 03:17:03;;;;;;;16.13;6.30;;;;;;;20.26;66.98;96856.34;10444312;28;20195;-71
2022/07/21 03:22:03;;;;;;;10.27;6.35;;;;;;;20.21;68.12;96848.19;10444822;28;20180;-71
2022/07/21 03:27:04;;;;;;;15.48;6.13;;;;;;;20.11;68.38;96853.19;10443633;28;20192;-71
2022/07/21 03:32:04;;;;;;;11.63;6.78;;;;;;;19.87;70.17;96846.75;10442529;28;20306;-70
2022/07/21 03:37:05;;;;;;;13.15;7.20;;;;;;;19.74;72.08;96847.59;10443379;28;20626;-71
2022/07/21 03:42:05;;;;;;;20.05;8.90;;;;;;;20.03;73.40;96838.28;10443566;28;20200;-71
2022/07/21 03:47:05;;;;;;;12.40;6.90;;;;;;;20.20;73.44;96835.94;10443634;28;20245;-71
2022/07/21 03:52:06;;;;;;;17.92;6.93;;;;;;;20.06;73.52;96837.03;10442686;28;20220;-71
2022/07/21 03:57:06;;;;;;;15.07;8.45;;;;;;;19.92;75.31;96857.56;10442719;28;20663;-71
2022/07/21 04:02:07;;;;;;;13.82;7.63;;;;;;;20.04;75.65;96852.38;10444922;28;20656;-70
2022/07/21 04:07:07;;;;;;;27.20;8.32;;;;;;;20.08;75.09;96843.78;10449466;28;20749;-71
2022/07/21 04:12:08;;;;;;;13.27;7.82;;;;;;;20.25;76.31;96851.25;10449715;28;20303;-71
2022/07/21 04:17:08;;;;;;;10.25;7.30;;;;;;;20.22;76.85;96854.34;10449070;28;20214;-71
2022/07/21 04:22:08;;;;;;;12.80;8.15;;;;;;;19.94;79.27;96861.66;10431715;28;20660;-70
2022/07/21 04:27:09;;;;;;;10.57;7.47;;;;;;;20.14;79.00;96868.72;10449011;28;20593;-71
2022/07/21 04:32:09;;;;;;;18.45;7.47;;;;;;;20.35;78.04;96853.44;10448713;28;20578;-70
2022/07/21 04:37:09;;;;;;;9.73;7.43;;;;;;;20.62;76.77;96860.19;10449046;28;20249;-71
2022/07/21 04:42:10;;;;;;;8.77;6.20;;;;;;;20.97;74.80;96846.41;10452549;28;20582;-71
2022/07/21 04:47:10;;;;;;;7.55;6.43;;;;;;;21.11;74.56;96843.63;10457335;28;20568;-71
2022/07/21 04:52:10;;;;;;;13.05;7.13;;;;;;;21.17;76.18;96845.41;10457090;28;20281;-71
2022/07/21 04:57:11;;;;;;;10.60;6.32;;;;;;;21.40;74.72;96839.41;10456595;28;20231;-71
2022/07/21 05:02:12;;;;;;;7.85;6.13;;;;;;;21.72;73.49;96844.59;10456873;28;20180;-71
2022/07/21 05:07:12;;;;;;;11.20;6.15;;;;;;;21.82;71.70;96831.56;10455727;28;20247;-71
2022/07/21 05:12:13;;;;;;;9.98;6.07;;;;;;;22.00;70.71;96828.00;10456741;28;20250;-72
2022/07/21 05:17:13;;;;;;;9.90;5.88;;;;;;;22.32;69.17;96827.00;10455629;28;20199;-71
2022/07/21 05:22:14;;;;;;;6.75;5.60;;;;;;;22.71;67.28;96808.69;10439037;28;20202;-72
2022/07/21 05:27:14;;;;;;;11.25;5.72;;;;;;;23.18;66.57;96807.91;10455465;28;20196;-71
2022/07/21 05:32:15;;;;;;;7.13;5.43;;;;;;;23.53;62.53;96764.22;10454893;28;20293;-70
2022/07/21 05:37:15;;;;;;;13.90;6.88;;;;;;;24.14;59.99;96732.44;10436929;28;20219;-71
2022/07/21 05:42:15;;;;;;;7.40;5.70;;;;;;;24.54;57.08;96680.53;10454963;28;20298;-70
2022/07/21 05:47:16;;;;;;;11.25;6.13;;;;;;;24.74;56.61;96698.78;10455180;28;20675;-71
2022/07/21 05:52:16;;;;;;;9.60;6.07;;;;;;;24.90;54.51;96644.34;10454356;28;20763;-71
2022/07/21 05:57:17;;;;;;;10.73;5.90;;;;;;;25.48;53.41;96645.78;10454180;28;20719;-71
2022/07/21 06:02:18;;;;;;;14.93;6.13;;;;;;;25.56;53.44;96664.91;10454636;28;20267;-71
2022/07/21 06:07:18;;;;;;;8.93;5.85;;;;;;;25.82;52.01;96649.06;10474160;28;20239;-71
2022/07/21 06:12:19;;;;;;;12.60;6.00;;;;;;;25.80;52.49;96656.53;10495531;28;20713;-71
2022/07/21 06:17:19;;;;;;;12.27;6.40;;;;;;;25.33;53.12;96673.25;10493484;28;20191;-71
2022/07/21 06:22:20;;;;;;;8.27;5.47;;;;;;;26.17;50.55;96634.28;10494461;28;20601;-71
2022/07/21 06:27:20;;;;;;;6.75;5.78;;;;;;;27.60;48.70;96630.59;10494495;28;20286;-71
2022/07/21 06:32:21;;;;;;;7.07;5.70;;;;;;;27.98;47.07;96611.47;10476957;28;20280;-71
2022/07/21 06:37:21;;;;;;;7.77;5.43;;;;;;;29.40;43.88;96578.88;10493462;28;20437;-72
2022/07/21 06:42:21;;;;;;;8.23;5.03;;;;;;;30.51;41.58;96550.31;10494683;28;20434;-72
2022/07/21 06:47:22;;;;;;;10.10;5.20;;;;;;;29.97;42.49;96551.41;10493882;28;20453;-72
2022/07/21 06:52:22;;;;;;;12.63;5.27;;;;;;;30.12;42.08;96548.56;10493767;28;20475;-72
2022/07/21 06:57:23;;;;;;;6.17;4.67;;;;;;;30.02;42.55;96571.09;10493292;28;20445;-72
2022/07/21 07:02:23;;;;;;;6.95;5.28;;;;;;;29.64;43.36;96586.28;10466955;28;20973;-72
2022/07/21 07:07:23;;;;;;;11.67;4.93;;;;;;;28.33;45.08;96594.47;10481772;28;20242;-72
2022/07/21 07:12:24;;;;;;;8.88;4.90;;;;;;;29.28;44.23;96616.19;10489319;28;20484;-72
2022/07/21 07:17:24;;;;;;;7.65;4.88;;;;;;;28.68;44.63;96613.50;10457474;28;20222;-72
2022/07/21 07:22:26;;;;;;;6.57;5.10;;;;;;;29.58;43.68;96623.28;10456025;28;20318;-71
2022/07/21 07:27:26;;;;;;;12.65;4.60;;;;;;;29.77;42.63;96609.94;10448004;28;20850;-72
2022/07/21 07:32:27;;;;;;;10.47;5.57;;;;;;;31.45;40.12;96599.38;10448934;28;20219;-73
2022/07/21 07:37:27;;;;;;;8.57;5.45;;;;;;;32.95;38.29;96590.22;10448014;28;20442;-71
2022/07/21 07:42:27;;;;;;;6.87;4.73;;;;;;;32.71;38.52;96585.03;10449230;28;20207;-72
2022/07/21 07:47:28;;;;;;;6.83;4.90;;;;;;;31.70;39.48;96594.69;10448114;28;20457;-72
2022/07/21 07:52:29;;;;;;;14.57;5.97;;;;;;;29.76;43.88;96645.31;10448107;28;20561;-72
2022/07/21 07:57:29;;;;;;;8.40;5.35;;;;;;;31.15;40.16;96584.41;10447658;28;20590;-71
2022/07/21 08:02:29;;;;;;;13.05;6.25;;;;;;;31.50;40.70;96626.38;10447972;28;20528;-71
2022/07/21 08:07:30;;;;;;;9.30;5.43;;;;;;;32.49;38.40;96586.50;10445273;28;20254;-72
2022/07/21 08:12:30;;;;;;;9.15;5.00;;;;;;;31.58;40.44;96619.50;10448298;28;20478;-72
2022/07/21 08:17:31;;;;;;;8.70;5.40;;;;;;;30.42;42.45;96611.53;10447430;28;20200;-72
2022/07/21 08:22:31;;;;;;;11.32;5.57;;;;;;;29.44;43.81;96636.63;10446819;28;20192;-71
2022/07/21 08:27:32;;;;;;;9.07;5.93;;;;;;;29.10;44.62;96656.22;10456112;28;20666;-71
2022/07/21 08:32:32;;;;;;;10.65;5.95;;;;;;;30.73;41.83;96638.22;10461707;28;20565;-72
2022/07/21 08:37:32;;;;;;;9.23;5.63;;;;;;;31.50;41.38;96639.91;10462213;28;20198;-71
2022/07/21 08:42:33;;;;;;;7.73;4.97;;;;;;;30.15;43.16;96636.34;10462679;28;20445;-72
2022/07/21 08:47:34;;;;;;;6.03;4.97;;;;;;;32.94;38.83;96632.06;10461815;28;20533;-72
2022/07/21 08:52:35;;;;;;;9.23;5.10;;;;;;;32.77;39.87;96664.41;10464042;28;20211;-72
2022/07/21 08:57:38;;;;;;;6.10;5.03;;;;;;;29.65;44.13;96660.78;10460803;28;20207;-72
2022/07/21 09:02:39;;;;;;;9.13;4.90;;;;;;;31.46;42.15;96676.81;10447128;28;20199;-72
2022/07/21 09:08:00;;;;;;;7.80;5.35;;;;;;;31.42;43.55;96727.22;10448684;28;20243;-72
2022/07/21 09:13:05;;;;;;;12.13;5.95;;;;;;;29.81;46.72;96748.72;10426632;28;20223;-72
2022/07/21 09:18:13;;;;;;;12.40;6.30;;;;;;;30.69;44.65;96732.66;10443713;28;20247;-72
2022/07/21 09:23:16;;;;;;;10.05;6.40;;;;;;;31.23;44.02;96729.91;10443365;28;20278;-72
2022/07/21 09:28:27;;;;;;;8.98;6.20;;;;;;;31.25;44.37;96747.47;10430238;28;20612;-72
2022/07/21 09:33:31;;;;;;;10.25;6.57;;;;;;;31.38;44.66;96758.69;10450241;28;20220;-72
2022/07/21 09:38:34;;;;;;;9.40;6.28;;;;;;;29.00;48.75;96780.31;10450254;28;20192;-72
2022/07/21 09:43:43;;;;;;;8.65;6.63;;;;;;;29.43;47.78;96778.03;10445143;28;20196;-72
2022/07/21 09:48:46;;;;;;;13.23;6.28;;;;;;;30.22;46.51;96761.94;10446406;28;20211;-72
2022/07/21 09:53:55;;;;;;;6.25;4.60;;;;;;;30.08;45.14;96733.97;10431013;28;20216;-72
2022/07/21 09:58:57;;;;;;;9.25;3.92;;;;;;;29.91;44.95;96714.63;10449749;28;20345;-72
2022/07/21 10:03:59;;;;;;;14.20;3.80;;;;;;;31.91;40.48;96655.56;10462645;28;20262;-72
2022/07/21 10:09:04;;;;;;;5.05;3.78;;;;;;;30.26;44.10;96700.00;10450632;28;20733;-72
2022/07/21 10:14:04;;;;;;;5.25;3.83;;;;;;;29.76;45.52;96729.81;10449069;28;20255;-72
2022/07/21 10:19:10;;;;;;;4.32;3.88;;;;;;;29.94;45.68;96741.06;10432222;28;20629;-72
2022/07/21 10:24:12;;;;;;;3.83;3.22;;;;;;;29.88;44.13;96697.91;10431345;28;20192;-72
2022/07/21 10:29:13;;;;;;;3.72;3.35;;;;;;;28.21;47.08;96720.53;10431231;28;20207;-71
2022/07/21 10:34:13;;;;;;;3.95;3.33;;;;;;;27.68;49.03;96753.06;10449711;28;20685;-72
2022/07/21 10:39:17;;;;;;;3.85;3.05;;;;;;;28.32;47.49;96753.72;10428402;28;20196;-72
2022/07/21 10:44:27;;;;;;;5.55;3.03;;;;;;;26.61;51.61;96805.97;10468725;28;20188;-72
2022/07/21 10:49:42;;;;;;;3.17;2.88;;;;;;;26.56;51.08;96802.47;10490114;28;20192;-72
2022/07/21 10:55:17;;;;;;;6.07;2.80;;;;;;;26.25;51.76;96789.59;10490206;28;20218;-72
2022/07/21 11:00:28;;;;;;;4.35;3.17;;;;;;;26.33;52.97;96848.19;10453072;28;20207;-71
2022/07/21 11:05:31;;;;;;;3.42;3.13;;;;;;;26.36;52.48;96825.41;10447291;28;20202;-72
2022/07/21 11:10:32;;;;;;;3.47;3.00;;;;;;;26.32;54.01;96876.13;10447160;28;20235;-72
2022/07/21 11:15:58;;;;;;;4.22;3.53;;;;;;;27.65;51.82;96847.78;10427808;28;20265;-72
2022/07/21 11:21:09;;;;;;;6.30;3.30;;;;;;;28.70;48.94;96798.19;10443983;28;20195;-72
2022/07/21 11:26:11;;;;;;;5.78;3.70;;;;;;;29.13;48.87;96785.16;10460458;28;20333;-72
2022/07/21 11:31:20;;;;;;;7.15;3.65;;;;;;;29.09;49.35;96815.66;10442289;28;20295;-72
2022/07/21 11:36:38;;;;;;;10.60;4.22;;;;;;;27.68;52.82;96882.25;10463001;28;20612;-72
2022/07/21 11:41:40;;;;;;;8.15;4.88;;;;;;;27.61;54.64;96912.09;10464291;28;20187;-72
2022/07/21 11:46:45;;;;;;;9.60;4.88;;;;;;;27.19;57.39;96940.59;10484094;28;20219;-71
2022/07/21 11:51:58;;;;;;;8.38;4.55;;;;;;;27.52;56.99;96929.81;10487382;28;20312;-71
2022/07/21 11:57:00;;;;;;;9.95;5.38;;;;;;;26.60;60.11;96972.84;10480547;28;20191;-71
2022/07/21 12:02:04;;;;;;;9.02;5.05;;;;;;;26.15;61.97;96966.72;10448612;28;20656;-72
2022/07/21 12:07:33;;;;;;;7.55;4.60;;;;;;;26.91;59.68;96928.28;10445253;28;20708;-71
2022/07/21 12:12:39;;;;;;;6.32;5.20;;;;;;;25.87;62.45;96960.44;10445670;28;20224;-71
2022/07/21 12:17:43;;;;;;;9.75;4.93;;;;;;;23.32;70.85;96989.19;10443318;28;20195;-71
2022/07/21 12:22:46;;;;;;;7.03;5.90;;;;;;;22.78;76.20;96980.34;10409415;28;20223;-71
2022/07/21 12:27:49;;;;;;;10.15;5.30;;;;;;;24.08;72.66;96951.00;10426161;28;20184;-72
2022/07/21 12:32:49;;;;;;;6.78;5.60;;;;;;;24.12;69.14;96949.50;10427846;28;20234;-72
2022/07/21 12:37:57;;;;;;;5.35;4.85;;;;;;;25.13;66.57;96940.03;10444139;28;20648;-71
2022/07/21 12:43:08;;;;;;;7.25;5.10;;;;;;;24.60;68.01;96954.69;10444746;28;20695;-71
2022/07/21 12:48:10;;;;;;;8.65;5.10;;;;;;;24.06;70.36;96971.84;10426398;28;20290;-71
2022/07/21 12:53:11;;;;;;;6.20;5.60;;;;;;;22.86;74.19;96968.50;10427775;28;20223;-71
2022/07/21 13:04:34;;;;;;;9.45;5.43;;;;;;;22.66;76.66;96969.63;10409500;28;20197;-75
2022/07/21 13:09:35;;;;;;;8.00;5.30;;;;;;;22.64;76.49;96954.88;10410906;28;20244;-75
2022/07/21 13:14:35;;;;;;;5.97;5.15;;;;;;;22.38;78.30;96955.00;10410601;28;20681;-76
2022/07/21 13:19:36;;;;;;;5.32;4.75;;;;;;;22.46;79.94;96929.84;10426357;28;20207;-74
2022/07/21 13:24:36;;;;;;;7.35;5.35;;;;;;;22.64;83.65;96938.84;10452320;28;20184;-75
2022/07/21 13:29:37;;;;;;;7.43;5.43;;;;;;;22.13;90.66;96940.94;10451738;28;20218;-76
2022/07/21 13:34:38;;;;;;;7.22;5.30;;;;;;;22.30;97.86;96931.28;10452321;28;20224;-75
2022/07/21 13:39:38;;;;;;;9.02;5.30;;;;;;;22.55;94.18;96933.81;10452506;28;20697;-75
2022/07/21 13:44:39;;;;;;;5.80;4.30;;;;;;;22.80;83.19;96904.28;10450018;28;20215;-75
2022/07/21 13:49:39;;;;;;;6.60;5.00;;;;;;;22.60;84.87;96928.63;10460622;28;20266;-75
2022/07/21 13:54:40;;;;;;;4.90;4.40;;;;;;;22.31;82.60;96945.47;10458566;28;20289;-75
2022/07/21 13:59:41;;;;;;;5.30;4.30;;;;;;;22.26;84.62;96949.59;10478435;28;20198;-73
2022/07/21 14:04:41;;;;;;;6.65;4.15;;;;;;;21.71;87.56;96937.09;10489481;28;20206;-73
2022/07/21 14:09:42;;;;;;;7.63;5.20;;;;;;;21.14;93.27;96944.41;10490845;28;20233;-75
2022/07/21 14:14:46;;;;;;;9.15;5.50;;;;;;;20.90;98.94;96967.34;10466617;28;20356;-75
2022/07/21 14:19:48;;;;;;;8.27;5.60;;;;;;;21.04;98.95;96950.22;10490954;28;20415;-75
2022/07/21 14:30:08;;;;;;;6.68;6.00;;;;;;;20.42;100.00;96960.66;10433779;28;20616;-74
2022/07/21 14:35:09;;;;;;;6.55;5.95;;;;;;;20.21;100.00;96956.44;10451509;28;20230;-75
2022/07/21 14:40:10;;;;;;;8.15;6.43;;;;;;;19.91;100.00;96941.84;10450525;28;20204;-74
2022/07/21 14:45:10;;;;;;;7.88;6.95;;;;;;;19.62;100.00;96935.16;10452171;28;20275;-74
2022/07/21 14:50:10;;;;;;;9.65;7.70;;;;;;;19.50;100.00;96920.88;10449980;28;20545;-74
2022/07/21 14:55:11;;;;;;;9.38;7.50;;;;;;;19.61;100.00;96926.34;10449599;28;20228;-75
2022/07/21 15:00:12;;;;;;;11.57;9.27;;;;;;;19.47;100.00;96943.34;10451215;28;20195;-74
2022/07/21 15:05:12;;;;;;;9.30;8.05;;;;;;;19.50;100.00;96921.69;10449841;28;20245;-74
2022/07/21 15:10:13;;;;;;;11.70;7.80;;;;;;;19.53;100.00;96915.94;10449615;28;20227;-75
2022/07/21 15:15:14;;;;;;;10.10;7.68;;;;;;;19.46;100.00;96914.34;10450006;28;20220;-75
2022/07/21 15:20:14;;;;;;;11.10;8.40;;;;;;;19.36;100.00;96922.75;10431318;28;20292;-74
2022/07/21 15:25:15;;;;;;;9.93;8.07;;;;;;;19.36;100.00;96925.41;10448967;28;20192;-75
2022/07/21 15:30:16;;;;;;;9.80;7.70;;;;;;;19.36;100.00;96920.09;10449419;28;21063;-75
2022/07/21 15:35:17;;;;;;;10.93;8.00;;;;;;;19.43;100.00;96912.91;10449512;28;20300;-75
2022/07/21 15:40:17;;;;;;;12.98;7.82;;;;;;;19.30;100.00;96929.69;10430931;28;20244;-78
2022/07/21 15:45:17;;;;;;;8.05;6.65;;;;;;;19.04;100.00;96917.25;10451075;28;20692;-78
2022/07/21 15:50:18;;;;;;;9.65;7.55;;;;;;;19.71;100.00;96922.44;10414779;28;20249;-75
2022/07/21 15:55:18;;;;;;;13.63;8.27;;;;;;;19.40;100.00;96908.84;10430864;28;20295;-77
2022/07/21 16:00:19;;;;;;;8.73;6.80;;;;;;;19.68;100.00;96909.56;10449121;28;20192;-77
2022/07/21 16:05:21;;;;;;;11.02;6.88;;;;;;;20.66;100.00;96900.53;10445628;28;20202;-76
2022/07/21 16:10:22;;;;;;;10.05;6.32;;;;;;;20.88;100.00;96877.00;10446547;28;20255;-75
2022/07/21 16:15:23;;;;;;;7.20;6.13;;;;;;;21.01;100.00;96879.56;10447238;28;20753;-75
2022/07/21 16:20:25;;;;;;;9.10;6.38;;;;;;;21.33;100.00;96866.13;10429026;28;20254;-76
2022/07/21 16:25:26;;;;;;;8.68;5.72;;;;;;;21.02;97.14;96843.06;10447034;28;20689;-75
2022/07/21 16:30:26;;;;;;;11.27;6.03;;;;;;;20.70;100.00;96845.00;10446154;28;20203;-76
2022/07/21 16:35:26;;;;;;;12.15;6.13;;;;;;;20.64;100.00;96831.53;10447451;28;20215;-76
2022/07/21 16:40:27;;;;;;;11.82;6.40;;;;;;;20.74;100.00;96831.03;10455494;28;20204;-76
2022/07/21 16:45:27;;;;;;;8.20;5.35;;;;;;;21.12;99.02;96824.75;10457068;28;20282;-76
2022/07/21 16:50:27;;;;;;;8.70;6.07;;;;;;;21.20;98.37;96813.78;10456691;28;20196;-75
2022/07/21 16:55:28;;;;;;;9.23;6.97;;;;;;;21.25;98.53;96831.78;10439939;28;20226;-74
2022/07/21 17:00:29;;;;;;;11.00;6.07;;;;;;;21.56;97.86;96827.34;10456820;28;20200;-74
2022/07/21 17:05:29;;;;;;;9.25;7.00;;;;;;;21.38;99.02;96823.63;10456373;28;20196;-74
2022/07/21 17:10:30;;;;;;;9.35;6.85;;;;;;;21.49;98.94;96827.44;10458737;28;20582;-74
2022/07/21 17:15:31;;;;;;;8.32;6.80;;;;;;;21.55;98.10;96820.41;10459866;28;20250;-74
2022/07/21 17:20:31;;;;;;;8.50;6.28;;;;;;;21.55;96.63;96813.22;10438104;28;20241;-74
2022/07/21 17:25:32;;;;;;;12.15;6.78;;;;;;;21.59;97.80;96810.09;10460482;28;20258;-75
2022/07/21 17:30:32;;;;;;;9.82;6.90;;;;;;;21.44;99.37;96813.94;10460589;28;20192;-74
2022/07/21 17:35:33;;;;;;;12.32;6.85;;;;;;;21.48;98.54;96806.31;10455277;28;20211;-73
2022/07/21 17:40:34;;;;;;;7.70;6.68;;;;;;;21.56;97.40;96808.69;10460866;28;20187;-74
2022/07/21 17:45:34;;;;;;;9.20;7.10;;;;;;;21.63;97.38;96809.44;10471803;28;20183;-74
2022/07/21 17:50:35;;;;;;;9.27;6.80;;;;;;;21.63;98.69;96812.09;10468848;28;20199;-75
2022/07/21 17:55:35;;;;;;;10.10;6.82;;;;;;;21.59;100.00;96810.09;10471224;28;20219;-74
2022/07/21 18:00:36;;;;;;;13.15;7.75;;;;;;;21.42;100.00;96812.53;10470149;28;20187;-74
2022/07/21 18:05:36;;;;;;;11.73;7.53;;;;;;;21.34;100.00;96816.31;10460166;28;20196;-74
2022/07/21 18:10:36;;;;;;;9.05;7.40;;;;;;;21.07;100.00;96813.94;10485844;28;20709;-74
2022/07/21 18:15:38;;;;;;;11.77;7.65;;;;;;;20.82;100.00;96811.31;10494474;28;20721;-74
2022/07/21 18:20:38;;;;;;;8.50;7.32;;;;;;;20.80;100.00;96811.53;10489690;28;20188;-74
2022/07/21 18:25:40;;;;;;;12.57;8.35;;;;;;;20.64;100.00;96804.91;10493315;28;20180;-74
2022/07/21 18:30:42;;;;;;;13.35;8.40;;;;;;;20.39;100.00;96820.84;10492721;28;20202;-74
2022/07/21 18:35:42;;;;;;;13.90;8.52;;;;;;;20.18;100.00;96827.34;10474473;28;20364;-73
2022/07/21 18:40:43;;;;;;;11.70;8.98;;;;;;;19.99;100.00;96820.31;10492649;28;20604;-74
2022/07/21 18:45:44;;;;;;;13.43;9.38;;;;;;;19.89;100.00;96823.41;10492256;28;20217;-74
2022/07/21 18:50:44;;;;;;;16.60;9.02;;;;;;;19.74;100.00;96831.63;10492078;28;20688;-73
2022/07/21 18:55:45;;;;;;;14.70;9.65;;;;;;;19.65;100.00;96832.91;10473811;28;20219;-75
2022/07/21 19:00:46;;;;;;;12.48;10.30;;;;;;;19.54;100.00;96837.03;10455477;28;20286;-75
2022/07/21 19:05:46;;;;;;;12.38;10.00;;;;;;;19.36;100.00;96845.72;10491759;28;20210;-75
2022/07/21 19:10:47;;;;;;;12.35;10.70;;;;;;;19.19;100.00;96840.84;10490926;28;20589;-75
2022/07/21 19:15:47;;;;;;;15.38;10.05;;;;;;;19.12;100.00;96839.22;10490550;28;20215;-75
2022/07/21 19:20:47;;;;;;;12.52;9.98;;;;;;;19.03;100.00;96846.59;10456164;28;20293;-75
2022/07/21 19:25:48;;;;;;;13.43;10.88;;;;;;;18.92;100.00;96855.19;10491161;28;20188;-75
2022/07/21 19:30:49;;;;;;;13.75;10.32;;;;;;;18.73;100.00;96854.97;10488840;28;20183;-74
2022/07/21 19:35:49;;;;;;;13.35;10.57;;;;;;;18.66;100.00;96862.09;10489816;28;20218;-75
2022/07/21 19:40:49;;;;;;;13.65;10.32;;;;;;;18.51;100.00;96868.44;10489666;28;20197;-75
2022/07/21 19:45:50;;;;;;;15.75;10.50;;;;;;;18.49;100.00;96873.09;10479954;28;20267;-75
2022/07/21 19:50:50;;;;;;;12.52;10.50;;;;;;;18.51;100.00;96862.28;10466668;28;20196;-75
2022/07/21 19:55:50;;;;;;;12.43;9.93;;;;;;;18.52;100.00;96862.09;10464177;28;20223;-74
2022/07/21 20:00:51;;;;;;;13.77;10.57;;;;;;;18.64;100.00;96874.78;10465621;28;20196;-75
2022/07/21 20:05:51;;;;;;;13.95;10.02;;;;;;;18.63;100.00;96870.47;10470696;28;20209;-74
2022/07/21 20:10:52;;;;;;;13.50;10.73;;;;;;;18.67;100.00;96869.06;10465419;28;20228;-75
2022/07/21 20:15:52;;;;;;;12.88;10.80;;;;;;;18.65;100.00;96863.94;10463644;28;20215;-75
2022/07/21 20:20:52;;;;;;;11.13;10.00;;;;;;;18.57;100.00;96871.28;10453804;28;20195;-74
2022/07/21 20:25:53;;;;;;;13.73;9.93;;;;;;;18.50;100.00;96869.44;10457089;28;20252;-74
2022/07/21 20:30:53;;;;;;;13.73;11.23;;;;;;;18.50;100.00;96869.44;10462764;28;20662;-74
2022/07/21 20:35:54;;;;;;;12.25;10.95;;;;;;;18.38;100.00;96863.09;10441408;28;20725;-75
2022/07/21 20:40:54;;;;;;;15.45;10.43;;;;;;;18.30;100.00;96873.88;10462775;28;20328;-75
2022/07/21 20:45:54;;;;;;;13.30;10.10;;;;;;;18.22;100.00;96866.94;10446164;28;20192;-74
2022/07/21 20:50:55;;;;;;;14.63;10.75;;;;;;;18.17;100.00;96864.09;10446721;28;20195;-74
2022/07/21 20:55:55;;;;;;;20.23;11.40;;;;;;;18.12;100.00;96864.69;10445463;28;20227;-75
2022/07/21 21:00:56;;;;;;;13.25;11.55;;;;;;;18.05;100.00;96865.69;10448114;28;20180;-75
2022/07/21 21:05:56;;;;;;;13.07;11.40;;;;;;;17.97;100.00;96864.84;10447729;28;20212;-75
2022/07/21 21:10:56;;;;;;;14.02;11.98;;;;;;;17.90;100.00;96860.53;10447011;28;20223;-75
2022/07/21 21:15:57;;;;;;;14.73;12.20;;;;;;;17.87;100.00;96860.91;10447589;28;20284;-74
2022/07/21 21:20:57;;;;;;;15.93;11.10;;;;;;;17.92;100.00;96862.00;10447246;28;20184;-75
2022/07/21 21:25:58;;;;;;;12.10;10.88;;;;;;;17.83;100.00;96865.81;10453737;28;20640;-74
2022/07/21 21:30:58;;;;;;;12.77;11.27;;;;;;;17.73;100.00;96865.34;10454802;28;20671;-74
2022/07/21 21:35:59;;;;;;;12.27;11.05;;;;;;;17.65;100.00;96874.28;10455206;28;20551;-74
2022/07/21 21:40:59;;;;;;;14.63;11.90;;;;;;;17.62;100.00;96877.34;10454716;28;20307;-74
2022/07/21 21:46:00;;;;;;;15.20;10.40;;;;;;;17.56;100.00;96883.41;10455003;28;20240;-74
2022/07/21 21:51:00;;;;;;;12.23;10.77;;;;;;;17.47;100.00;96877.47;10454472;28;20184;-74
2022/07/21 21:56:00;;;;;;;13.18;11.15;;;;;;;17.36;100.00;96883.31;10454499;28;20245;-74
2022/07/21 22:01:01;;;;;;;12.82;10.18;;;;;;;17.19;100.00;96877.53;10454229;28;20192;-74
2022/07/21 22:06:01;;;;;;;14.48;10.88;;;;;;;17.13;100.00;96883.59;10453745;28;20230;-74
2022/07/21 22:11:01;;;;;;;12.95;11.55;;;;;;;16.99;100.00;96888.78;10453619;28;20223;-74
2022/07/21 22:16:02;;;;;;;14.50;11.52;;;;;;;16.89;100.00;96901.53;10453414;28;20591;-74
2022/07/21 22:21:02;;;;;;;16.45;12.07;;;;;;;16.84;100.00;96902.06;10453475;28;20559;-74
2022/07/21 22:26:02;;;;;;;16.42;11.68;;;;;;;16.81;100.00;96904.28;10453002;28;20187;-73
2022/07/21 22:31:04;;;;;;;13.43;10.88;;;;;;;16.83;100.00;96900.44;10452995;28;20188;-73
2022/07/21 22:36:05;;;;;;;18.02;11.93;;;;;;;16.80;100.00;96903.47;10452457;28;20200;-74
2022/07/21 22:41:05;;;;;;;18.83;11.30;;;;;;;16.87;100.00;96911.50;10452178;28;20690;-73
2022/07/21 22:46:06;;;;;;;13.90;11.25;;;;;;;16.84;100.00;96915.31;10435056;28;20192;-74
2022/07/21 22:51:07;;;;;;;14.02;10.85;;;;;;;16.73;100.00;96924.56;10451420;28;20198;-73
2022/07/21 22:56:07;;;;;;;16.73;11.40;;;;;;;16.48;100.00;96929.44;10451766;28;20198;-74
2022/07/21 23:01:08;;;;;;;13.55;11.80;;;;;;;16.38;100.00;96926.28;10451354;28;20215;-73
2022/07/21 23:06:08;;;;;;;17.95;11.65;;;;;;;16.39;100.00;96934.03;10451458;28;20748;-74
2022/07/21 23:11:08;;;;;;;15.15;11.70;;;;;;;16.32;100.00;96934.97;10450861;28;20664;-74
2022/07/21 23:16:09;;;;;;;16.42;12.05;;;;;;;16.28;100.00;96934.53;10451112;28;20195;-73